sensor_id;sensor_type;location;lat;lon;timestamp;P1;durP1;ratioP1;P2;durP2;ratioP2
37445;SDS011;23307;51.136;14.942;2023-02-15T00:00:05;26.37;;;17.63;;
37445;SDS011;23307;51.136;14.942;2023-02-15T00:02:35;26.13;;;18.03;;
37445;SDS011;23307;51.136;14.942;2023-02-15T00:05:00;26.33;;;18.07;;
37445;SDS011;23307;51.136;14.942;2023-02-15T00:07:26;25.40;;;17.30;;
37445;SDS011;23307;51.136;14.942;2023-02-15T00:09:51;24.40;;;17.13;;
37445;SDS011;23307;51.136;14.942;2023-02-15T00:12:17;28.27;;;19.33;;
37445;SDS011;23307;51.136;14.942;2023-02-15T00:14:42;25.73;;;17.93;;
37445;SDS011;23307;51.136;14.942;2023-02-15T00:17:08;24.13;;;16.80;;
37445;SDS011;23307;51.136;14.942;2023-02-15T00:19:34;24.47;;;17.67;;
37445;SDS011;23307;51.136;14.942;2023-02-15T00:21:59;28.77;;;18.87;;
37445;SDS011;23307;51.136;14.942;2023-02-15T00:24:27;27.80;;;19.07;;
37445;SDS011;23307;51.136;14.942;2023-02-15T00:26:53;26.20;;;18.43;;
37445;SDS011;23307;51.136;14.942;2023-02-15T00:29:18;25.80;;;17.10;;
37445;SDS011;23307;51.136;14.942;2023-02-15T00:31:45;27.13;;;17.80;;
37445;SDS011;23307;51.136;14.942;2023-02-15T00:34:11;25.07;;;17.90;;
37445;SDS011;23307;51.136;14.942;2023-02-15T00:36:37;26.67;;;19.13;;
37445;SDS011;23307;51.136;14.942;2023-02-15T00:39:03;26.70;;;18.03;;
37445;SDS011;23307;51.136;14.942;2023-02-15T00:41:29;27.53;;;18.77;;
37445;SDS011;23307;51.136;14.942;2023-02-15T00:43:55;30.27;;;20.27;;
37445;SDS011;23307;51.136;14.942;2023-02-15T00:46:21;30.33;;;20.13;;
37445;SDS011;23307;51.136;14.942;2023-02-15T00:48:46;29.43;;;18.70;;
37445;SDS011;23307;51.136;14.942;2023-02-15T00:51:11;30.73;;;21.07;;
37445;SDS011;23307;51.136;14.942;2023-02-15T00:53:37;33.40;;;21.90;;
37445;SDS011;23307;51.136;14.942;2023-02-15T00:56:03;32.03;;;20.77;;
37445;SDS011;23307;51.136;14.942;2023-02-15T00:58:28;30.53;;;19.87;;
37445;SDS011;23307;51.136;14.942;2023-02-15T01:00:54;32.70;;;21.87;;
37445;SDS011;23307;51.136;14.942;2023-02-15T01:03:20;37.63;;;22.63;;
37445;SDS011;23307;51.136;14.942;2023-02-15T01:05:46;36.20;;;21.93;;
37445;SDS011;23307;51.136;14.942;2023-02-15T01:08:13;37.97;;;22.57;;
37445;SDS011;23307;51.136;14.942;2023-02-15T01:10:39;33.90;;;21.50;;
37445;SDS011;23307;51.136;14.942;2023-02-15T01:13:05;37.30;;;24.57;;
37445;SDS011;23307;51.136;14.942;2023-02-15T01:15:31;41.73;;;25.53;;
37445;SDS011;23307;51.136;14.942;2023-02-15T01:17:59;39.27;;;24.60;;
37445;SDS011;23307;51.136;14.942;2023-02-15T01:20:26;39.37;;;25.83;;
37445;SDS011;23307;51.136;14.942;2023-02-15T01:22:54;40.33;;;25.23;;
37445;SDS011;23307;51.136;14.942;2023-02-15T01:25:20;40.50;;;26.23;;
37445;SDS011;23307;51.136;14.942;2023-02-15T01:27:47;43.20;;;27.03;;
37445;SDS011;23307;51.136;14.942;2023-02-15T01:30:14;41.87;;;26.27;;
37445;SDS011;23307;51.136;14.942;2023-02-15T01:32:40;40.90;;;26.63;;
37445;SDS011;23307;51.136;14.942;2023-02-15T01:35:06;42.93;;;26.77;;
37445;SDS011;23307;51.136;14.942;2023-02-15T01:37:33;42.60;;;27.67;;
37445;SDS011;23307;51.136;14.942;2023-02-15T01:39:59;41.00;;;26.43;;
37445;SDS011;23307;51.136;14.942;2023-02-15T01:42:26;43.33;;;27.03;;
37445;SDS011;23307;51.136;14.942;2023-02-15T01:44:54;41.43;;;27.17;;
37445;SDS011;23307;51.136;14.942;2023-02-15T01:49:59;44.90;;;27.73;;
37445;SDS011;23307;51.136;14.942;2023-02-15T01:52:45;45.70;;;27.93;;
37445;SDS011;23307;51.136;14.942;2023-02-15T01:55:24;43.50;;;27.47;;
37445;SDS011;23307;51.136;14.942;2023-02-15T01:57:53;43.87;;;27.97;;
37445;SDS011;23307;51.136;14.942;2023-02-15T02:00:18;40.27;;;25.07;;
37445;SDS011;23307;51.136;14.942;2023-02-15T02:02:45;42.83;;;26.20;;
37445;SDS011;23307;51.136;14.942;2023-02-15T02:05:15;45.03;;;27.30;;
37445;SDS011;23307;51.136;14.942;2023-02-15T02:07:41;42.07;;;26.23;;
37445;SDS011;23307;51.136;14.942;2023-02-15T02:10:10;43.57;;;25.77;;
37445;SDS011;23307;51.136;14.942;2023-02-15T02:12:38;41.27;;;27.80;;
37445;SDS011;23307;51.136;14.942;2023-02-15T02:15:07;42.77;;;26.83;;
37445;SDS011;23307;51.136;14.942;2023-02-15T02:17:49;41.97;;;27.10;;
37445;SDS011;23307;51.136;14.942;2023-02-15T02:26:48;41.60;;;25.73;;
37445;SDS011;23307;51.136;14.942;2023-02-15T02:29:47;39.80;;;25.50;;
37445;SDS011;23307;51.136;14.942;2023-02-15T02:35:16;41.80;;;26.87;;
37445;SDS011;23307;51.136;14.942;2023-02-15T02:38:00;40.70;;;26.30;;
37445;SDS011;23307;51.136;14.942;2023-02-15T02:40:49;41.07;;;26.10;;
37445;SDS011;23307;51.136;14.942;2023-02-15T02:46:33;39.20;;;25.23;;
37445;SDS011;23307;51.136;14.942;2023-02-15T02:49:08;39.20;;;25.10;;
37445;SDS011;23307;51.136;14.942;2023-02-15T02:51:34;38.43;;;25.17;;
37445;SDS011;23307;51.136;14.942;2023-02-15T02:54:00;38.80;;;24.70;;
37445;SDS011;23307;51.136;14.942;2023-02-15T02:56:33;39.93;;;24.70;;
37445;SDS011;23307;51.136;14.942;2023-02-15T02:59:03;43.73;;;25.57;;
37445;SDS011;23307;51.136;14.942;2023-02-15T03:04:04;37.63;;;24.30;;
37445;SDS011;23307;51.136;14.942;2023-02-15T03:06:37;37.93;;;24.50;;
37445;SDS011;23307;51.136;14.942;2023-02-15T03:09:23;41.10;;;24.73;;
37445;SDS011;23307;51.136;14.942;2023-02-15T03:11:59;40.27;;;24.87;;
37445;SDS011;23307;51.136;14.942;2023-02-15T03:14:26;36.40;;;24.10;;
37445;SDS011;23307;51.136;14.942;2023-02-15T03:16:52;36.77;;;22.53;;
37445;SDS011;23307;51.136;14.942;2023-02-15T03:19:20;35.77;;;23.50;;
37445;SDS011;23307;51.136;14.942;2023-02-15T03:21:50;39.30;;;24.73;;
37445;SDS011;23307;51.136;14.942;2023-02-15T03:24:29;38.53;;;24.97;;
37445;SDS011;23307;51.136;14.942;2023-02-15T03:27:01;37.17;;;22.47;;
37445;SDS011;23307;51.136;14.942;2023-02-15T03:29:28;35.30;;;22.53;;
37445;SDS011;23307;51.136;14.942;2023-02-15T03:31:58;34.90;;;23.17;;
37445;SDS011;23307;51.136;14.942;2023-02-15T03:34:25;34.57;;;22.97;;
37445;SDS011;23307;51.136;14.942;2023-02-15T03:43:42;34.03;;;20.73;;
37445;SDS011;23307;51.136;14.942;2023-02-15T03:49:22;34.50;;;21.83;;
37445;SDS011;23307;51.136;14.942;2023-02-15T03:51:53;33.60;;;22.40;;
37445;SDS011;23307;51.136;14.942;2023-02-15T03:54:25;37.83;;;24.30;;
37445;SDS011;23307;51.136;14.942;2023-02-15T03:57:08;33.57;;;22.17;;
37445;SDS011;23307;51.136;14.942;2023-02-15T03:59:58;33.57;;;23.17;;
37445;SDS011;23307;51.136;14.942;2023-02-15T04:02:45;33.60;;;22.43;;
37445;SDS011;23307;51.136;14.942;2023-02-15T04:05:20;33.50;;;22.57;;
37445;SDS011;23307;51.136;14.942;2023-02-15T04:07:45;34.13;;;23.47;;
37445;SDS011;23307;51.136;14.942;2023-02-15T04:10:11;33.40;;;22.97;;
37445;SDS011;23307;51.136;14.942;2023-02-15T04:13:12;35.93;;;23.47;;
37445;SDS011;23307;51.136;14.942;2023-02-15T04:15:38;35.63;;;23.47;;
37445;SDS011;23307;51.136;14.942;2023-02-15T04:18:23;36.23;;;23.60;;
37445;SDS011;23307;51.136;14.942;2023-02-15T04:21:07;38.57;;;24.00;;
37445;SDS011;23307;51.136;14.942;2023-02-15T04:23:51;35.23;;;23.47;;
37445;SDS011;23307;51.136;14.942;2023-02-15T04:26:35;34.73;;;23.30;;
37445;SDS011;23307;51.136;14.942;2023-02-15T04:29:00;35.27;;;23.10;;
37445;SDS011;23307;51.136;14.942;2023-02-15T04:31:25;34.97;;;23.17;;
37445;SDS011;23307;51.136;14.942;2023-02-15T04:33:51;34.60;;;23.13;;
37445;SDS011;23307;51.136;14.942;2023-02-15T04:36:17;36.47;;;23.93;;
37445;SDS011;23307;51.136;14.942;2023-02-15T04:38:42;35.70;;;23.80;;
37445;SDS011;23307;51.136;14.942;2023-02-15T04:41:07;38.07;;;25.97;;
37445;SDS011;23307;51.136;14.942;2023-02-15T04:43:35;37.50;;;24.57;;
37445;SDS011;23307;51.136;14.942;2023-02-15T04:46:00;36.70;;;25.03;;
37445;SDS011;23307;51.136;14.942;2023-02-15T04:48:26;35.57;;;24.17;;
37445;SDS011;23307;51.136;14.942;2023-02-15T04:50:51;37.43;;;25.60;;
37445;SDS011;23307;51.136;14.942;2023-02-15T04:53:17;37.77;;;26.00;;
37445;SDS011;23307;51.136;14.942;2023-02-15T04:55:43;36.80;;;26.17;;
37445;SDS011;23307;51.136;14.942;2023-02-15T04:58:08;38.80;;;24.97;;
37445;SDS011;23307;51.136;14.942;2023-02-15T05:00:34;37.63;;;25.93;;
37445;SDS011;23307;51.136;14.942;2023-02-15T05:02:59;39.50;;;27.53;;
37445;SDS011;23307;51.136;14.942;2023-02-15T05:05:25;36.73;;;25.30;;
37445;SDS011;23307;51.136;14.942;2023-02-15T05:07:50;41.40;;;27.67;;
37445;SDS011;23307;51.136;14.942;2023-02-15T05:10:16;38.13;;;25.67;;
37445;SDS011;23307;51.136;14.942;2023-02-15T05:12:41;39.87;;;27.10;;
37445;SDS011;23307;51.136;14.942;2023-02-15T05:15:07;38.00;;;25.63;;
37445;SDS011;23307;51.136;14.942;2023-02-15T05:17:33;37.87;;;26.27;;
37445;SDS011;23307;51.136;14.942;2023-02-15T05:19:59;40.33;;;25.73;;
37445;SDS011;23307;51.136;14.942;2023-02-15T05:22:24;38.50;;;25.83;;
37445;SDS011;23307;51.136;14.942;2023-02-15T05:24:50;40.53;;;27.00;;
37445;SDS011;23307;51.136;14.942;2023-02-15T05:27:34;42.00;;;26.37;;
37445;SDS011;23307;51.136;14.942;2023-02-15T05:30:18;39.17;;;25.30;;
37445;SDS011;23307;51.136;14.942;2023-02-15T05:32:43;41.67;;;26.90;;
37445;SDS011;23307;51.136;14.942;2023-02-15T05:35:11;39.47;;;26.67;;
37445;SDS011;23307;51.136;14.942;2023-02-15T05:37:39;40.93;;;26.77;;
37445;SDS011;23307;51.136;14.942;2023-02-15T05:40:04;40.37;;;26.07;;
37445;SDS011;23307;51.136;14.942;2023-02-15T05:42:30;40.17;;;27.23;;
37445;SDS011;23307;51.136;14.942;2023-02-15T05:44:56;43.37;;;27.37;;
37445;SDS011;23307;51.136;14.942;2023-02-15T05:47:21;41.70;;;26.00;;
37445;SDS011;23307;51.136;14.942;2023-02-15T05:49:47;41.13;;;26.13;;
37445;SDS011;23307;51.136;14.942;2023-02-15T05:52:12;39.60;;;26.33;;
37445;SDS011;23307;51.136;14.942;2023-02-15T05:54:38;42.07;;;26.53;;
37445;SDS011;23307;51.136;14.942;2023-02-15T05:57:03;40.20;;;26.47;;
37445;SDS011;23307;51.136;14.942;2023-02-15T05:59:29;43.20;;;27.57;;
37445;SDS011;23307;51.136;14.942;2023-02-15T06:01:54;41.93;;;27.37;;
37445;SDS011;23307;51.136;14.942;2023-02-15T06:04:20;42.33;;;27.33;;
37445;SDS011;23307;51.136;14.942;2023-02-15T06:06:45;43.20;;;27.97;;
37445;SDS011;23307;51.136;14.942;2023-02-15T06:09:11;41.60;;;27.43;;
37445;SDS011;23307;51.136;14.942;2023-02-15T06:11:37;41.00;;;26.97;;
37445;SDS011;23307;51.136;14.942;2023-02-15T06:14:03;40.90;;;27.03;;
37445;SDS011;23307;51.136;14.942;2023-02-15T06:16:29;41.57;;;26.93;;
37445;SDS011;23307;51.136;14.942;2023-02-15T06:18:54;41.20;;;26.30;;
37445;SDS011;23307;51.136;14.942;2023-02-15T06:21:20;42.17;;;27.37;;
37445;SDS011;23307;51.136;14.942;2023-02-15T06:23:45;42.77;;;27.37;;
37445;SDS011;23307;51.136;14.942;2023-02-15T06:26:11;39.80;;;26.80;;
37445;SDS011;23307;51.136;14.942;2023-02-15T06:28:36;40.47;;;26.57;;
37445;SDS011;23307;51.136;14.942;2023-02-15T06:31:02;41.83;;;27.30;;
37445;SDS011;23307;51.136;14.942;2023-02-15T06:33:28;41.97;;;27.20;;
37445;SDS011;23307;51.136;14.942;2023-02-15T06:35:55;44.23;;;26.70;;
37445;SDS011;23307;51.136;14.942;2023-02-15T06:38:21;40.83;;;26.83;;
37445;SDS011;23307;51.136;14.942;2023-02-15T06:40:47;41.93;;;26.63;;
37445;SDS011;23307;51.136;14.942;2023-02-15T06:43:13;41.27;;;27.00;;
37445;SDS011;23307;51.136;14.942;2023-02-15T06:45:38;38.90;;;27.40;;
37445;SDS011;23307;51.136;14.942;2023-02-15T06:48:04;38.53;;;25.13;;
37445;SDS011;23307;51.136;14.942;2023-02-15T06:50:31;40.20;;;26.30;;
37445;SDS011;23307;51.136;14.942;2023-02-15T06:52:57;40.80;;;25.43;;
37445;SDS011;23307;51.136;14.942;2023-02-15T06:55:23;39.20;;;24.83;;
37445;SDS011;23307;51.136;14.942;2023-02-15T06:57:50;38.90;;;26.13;;
37445;SDS011;23307;51.136;14.942;2023-02-15T07:00:15;38.73;;;26.30;;
37445;SDS011;23307;51.136;14.942;2023-02-15T07:02:42;43.00;;;26.87;;
37445;SDS011;23307;51.136;14.942;2023-02-15T07:05:08;32.90;;;21.70;;
37445;SDS011;23307;51.136;14.942;2023-02-15T07:07:33;37.37;;;24.63;;
37445;SDS011;23307;51.136;14.942;2023-02-15T07:09:59;39.20;;;24.53;;
37445;SDS011;23307;51.136;14.942;2023-02-15T07:12:25;38.47;;;25.07;;
37445;SDS011;23307;51.136;14.942;2023-02-15T07:15:10;37.20;;;24.87;;
37445;SDS011;23307;51.136;14.942;2023-02-15T07:17:37;33.97;;;21.20;;
37445;SDS011;23307;51.136;14.942;2023-02-15T07:20:05;36.43;;;23.03;;
37445;SDS011;23307;51.136;14.942;2023-02-15T07:22:35;36.37;;;23.67;;
37445;SDS011;23307;51.136;14.942;2023-02-15T07:25:01;34.43;;;22.93;;
37445;SDS011;23307;51.136;14.942;2023-02-15T07:27:28;39.77;;;24.30;;
37445;SDS011;23307;51.136;14.942;2023-02-15T07:29:55;31.13;;;20.53;;
37445;SDS011;23307;51.136;14.942;2023-02-15T07:32:20;34.07;;;22.03;;
37445;SDS011;23307;51.136;14.942;2023-02-15T07:34:46;41.10;;;25.13;;
37445;SDS011;23307;51.136;14.942;2023-02-15T07:37:11;38.27;;;24.17;;
37445;SDS011;23307;51.136;14.942;2023-02-15T07:39:36;35.17;;;23.10;;
37445;SDS011;23307;51.136;14.942;2023-02-15T07:42:02;35.47;;;23.17;;
37445;SDS011;23307;51.136;14.942;2023-02-15T07:44:28;38.17;;;25.03;;
37445;SDS011;23307;51.136;14.942;2023-02-15T07:46:53;35.80;;;23.97;;
37445;SDS011;23307;51.136;14.942;2023-02-15T07:49:19;37.93;;;24.17;;
37445;SDS011;23307;51.136;14.942;2023-02-15T07:51:44;37.80;;;24.90;;
37445;SDS011;23307;51.136;14.942;2023-02-15T07:54:10;37.23;;;22.90;;
37445;SDS011;23307;51.136;14.942;2023-02-15T07:56:36;35.33;;;23.73;;
37445;SDS011;23307;51.136;14.942;2023-02-15T07:59:01;39.90;;;23.77;;
37445;SDS011;23307;51.136;14.942;2023-02-15T08:01:32;38.00;;;25.93;;
37445;SDS011;23307;51.136;14.942;2023-02-15T08:04:00;37.37;;;22.70;;
37445;SDS011;23307;51.136;14.942;2023-02-15T08:06:27;40.07;;;25.83;;
37445;SDS011;23307;51.136;14.942;2023-02-15T08:08:54;35.60;;;22.50;;
37445;SDS011;23307;51.136;14.942;2023-02-15T08:14:03;42.27;;;25.37;;
37445;SDS011;23307;51.136;14.942;2023-02-15T08:19:06;36.27;;;25.27;;
37445;SDS011;23307;51.136;14.942;2023-02-15T08:21:34;40.00;;;25.87;;
37445;SDS011;23307;51.136;14.942;2023-02-15T08:24:00;39.03;;;25.30;;
37445;SDS011;23307;51.136;14.942;2023-02-15T08:26:27;38.47;;;24.57;;
37445;SDS011;23307;51.136;14.942;2023-02-15T08:28:53;35.97;;;23.53;;
37445;SDS011;23307;51.136;14.942;2023-02-15T08:31:19;32.30;;;20.63;;
37445;SDS011;23307;51.136;14.942;2023-02-15T08:33:45;39.57;;;25.57;;
37445;SDS011;23307;51.136;14.942;2023-02-15T08:36:13;35.00;;;22.40;;
37445;SDS011;23307;51.136;14.942;2023-02-15T08:38:40;38.27;;;25.50;;
37445;SDS011;23307;51.136;14.942;2023-02-15T08:41:14;36.87;;;23.90;;
37445;SDS011;23307;51.136;14.942;2023-02-15T08:43:48;40.93;;;26.57;;
37445;SDS011;23307;51.136;14.942;2023-02-15T08:46:16;38.77;;;24.77;;
37445;SDS011;23307;51.136;14.942;2023-02-15T08:48:43;38.70;;;26.27;;
37445;SDS011;23307;51.136;14.942;2023-02-15T08:51:16;40.20;;;25.80;;
37445;SDS011;23307;51.136;14.942;2023-02-15T08:53:44;36.10;;;23.43;;
37445;SDS011;23307;51.136;14.942;2023-02-15T08:56:15;40.83;;;26.40;;
37445;SDS011;23307;51.136;14.942;2023-02-15T08:58:41;35.87;;;24.07;;
37445;SDS011;23307;51.136;14.942;2023-02-15T09:01:13;39.17;;;26.80;;
37445;SDS011;23307;51.136;14.942;2023-02-15T09:03:49;44.43;;;27.40;;
37445;SDS011;23307;51.136;14.942;2023-02-15T09:06:18;39.33;;;25.67;;
37445;SDS011;23307;51.136;14.942;2023-02-15T09:08:43;40.00;;;26.23;;
37445;SDS011;23307;51.136;14.942;2023-02-15T09:11:10;38.67;;;25.43;;
37445;SDS011;23307;51.136;14.942;2023-02-15T09:14:00;38.73;;;26.27;;
37445;SDS011;23307;51.136;14.942;2023-02-15T09:16:28;37.87;;;25.30;;
37445;SDS011;23307;51.136;14.942;2023-02-15T09:18:55;41.67;;;26.27;;
37445;SDS011;23307;51.136;14.942;2023-02-15T09:21:23;36.77;;;24.87;;
37445;SDS011;23307;51.136;14.942;2023-02-15T09:23:50;37.90;;;26.33;;
37445;SDS011;23307;51.136;14.942;2023-02-15T09:26:20;38.40;;;25.53;;
37445;SDS011;23307;51.136;14.942;2023-02-15T09:28:47;36.47;;;23.67;;
37445;SDS011;23307;51.136;14.942;2023-02-15T09:31:17;30.47;;;19.53;;
37445;SDS011;23307;51.136;14.942;2023-02-15T09:33:45;35.67;;;24.07;;
37445;SDS011;23307;51.136;14.942;2023-02-15T09:36:16;37.87;;;24.63;;
37445;SDS011;23307;51.136;14.942;2023-02-15T09:38:52;35.40;;;24.03;;
37445;SDS011;23307;51.136;14.942;2023-02-15T09:58:32;35.97;;;23.27;;
37445;SDS011;23307;51.136;14.942;2023-02-15T10:01:23;37.50;;;25.33;;
37445;SDS011;23307;51.136;14.942;2023-02-15T10:07:17;40.37;;;24.93;;
37445;SDS011;23307;51.136;14.942;2023-02-15T10:10:01;37.23;;;26.43;;
37445;SDS011;23307;51.136;14.942;2023-02-15T10:12:41;36.43;;;24.83;;
37445;SDS011;23307;51.136;14.942;2023-02-15T10:15:38;39.50;;;26.10;;
37445;SDS011;23307;51.136;14.942;2023-02-15T10:21:20;36.67;;;25.87;;
37445;SDS011;23307;51.136;14.942;2023-02-15T10:26:52;36.50;;;25.67;;
37445;SDS011;23307;51.136;14.942;2023-02-15T10:29:37;38.57;;;25.30;;
37445;SDS011;23307;51.136;14.942;2023-02-15T10:32:05;39.83;;;26.77;;
37445;SDS011;23307;51.136;14.942;2023-02-15T10:37:27;37.93;;;26.00;;
37445;SDS011;23307;51.136;14.942;2023-02-15T10:42:30;38.13;;;26.30;;
37445;SDS011;23307;51.136;14.942;2023-02-15T10:45:24;39.53;;;27.03;;
37445;SDS011;23307;51.136;14.942;2023-02-15T10:50:57;38.20;;;26.80;;
37445;SDS011;23307;51.136;14.942;2023-02-15T11:01:48;36.73;;;25.17;;
37445;SDS011;23307;51.136;14.942;2023-02-15T11:07:08;37.97;;;25.43;;
37445;SDS011;23307;51.136;14.942;2023-02-15T11:12:50;37.77;;;26.67;;
37445;SDS011;23307;51.136;14.942;2023-02-15T11:15:20;36.53;;;25.37;;
37445;SDS011;23307;51.136;14.942;2023-02-15T11:18:13;37.27;;;26.03;;
37445;SDS011;23307;51.136;14.942;2023-02-15T11:20:42;40.43;;;27.23;;
37445;SDS011;23307;51.136;14.942;2023-02-15T11:23:16;37.00;;;25.30;;
37445;SDS011;23307;51.136;14.942;2023-02-15T11:25:44;38.47;;;25.93;;
37445;SDS011;23307;51.136;14.942;2023-02-15T11:28:17;36.37;;;26.07;;
37445;SDS011;23307;51.136;14.942;2023-02-15T11:30:48;37.77;;;25.47;;
37445;SDS011;23307;51.136;14.942;2023-02-15T11:33:20;39.23;;;27.63;;
37445;SDS011;23307;51.136;14.942;2023-02-15T11:36:07;38.80;;;25.93;;
37445;SDS011;23307;51.136;14.942;2023-02-15T11:38:38;35.77;;;25.47;;
37445;SDS011;23307;51.136;14.942;2023-02-15T11:41:12;36.60;;;23.93;;
37445;SDS011;23307;51.136;14.942;2023-02-15T11:46:17;40.13;;;26.63;;
37445;SDS011;23307;51.136;14.942;2023-02-15T11:48:44;40.10;;;27.17;;
37445;SDS011;23307;51.136;14.942;2023-02-15T11:51:17;39.03;;;26.30;;
37445;SDS011;23307;51.136;14.942;2023-02-15T11:53:45;39.40;;;27.63;;
37445;SDS011;23307;51.136;14.942;2023-02-15T12:01:41;42.00;;;27.60;;
37445;SDS011;23307;51.136;14.942;2023-02-15T12:04:22;38.90;;;25.97;;
37445;SDS011;23307;51.136;14.942;2023-02-15T12:07:09;38.97;;;26.47;;
37445;SDS011;23307;51.136;14.942;2023-02-15T12:09:56;44.33;;;28.20;;
37445;SDS011;23307;51.136;14.942;2023-02-15T12:12:42;39.43;;;27.63;;
37445;SDS011;23307;51.136;14.942;2023-02-15T12:15:08;41.50;;;28.70;;
37445;SDS011;23307;51.136;14.942;2023-02-15T12:17:38;42.57;;;27.30;;
37445;SDS011;23307;51.136;14.942;2023-02-15T12:23:14;40.03;;;28.27;;
37445;SDS011;23307;51.136;14.942;2023-02-15T12:25:39;43.20;;;29.40;;
37445;SDS011;23307;51.136;14.942;2023-02-15T12:30:48;40.67;;;28.00;;
37445;SDS011;23307;51.136;14.942;2023-02-15T12:33:28;41.58;;;28.38;;
37445;SDS011;23307;51.136;14.942;2023-02-15T12:35:59;41.00;;;28.80;;
37445;SDS011;23307;51.136;14.942;2023-02-15T12:38:34;39.05;;;27.95;;
37445;SDS011;23307;51.136;14.942;2023-02-15T12:44:02;42.85;;;30.27;;
37445;SDS011;23307;51.136;14.942;2023-02-15T12:46:40;41.00;;;29.05;;
37445;SDS011;23307;51.136;14.942;2023-02-15T12:56:47;43.20;;;30.08;;
37445;SDS011;23307;51.136;14.942;2023-02-15T12:59:14;41.70;;;29.52;;
37445;SDS011;23307;51.136;14.942;2023-02-15T13:01:45;44.95;;;30.20;;
37445;SDS011;23307;51.136;14.942;2023-02-15T13:06:47;44.58;;;31.55;;
37445;SDS011;23307;51.136;14.942;2023-02-15T13:09:18;46.78;;;32.22;;
37445;SDS011;23307;51.136;14.942;2023-02-15T13:11:49;43.72;;;30.75;;
37445;SDS011;23307;51.136;14.942;2023-02-15T13:16:46;41.35;;;30.02;;
37445;SDS011;23307;51.136;14.942;2023-02-15T13:19:15;41.53;;;30.13;;
37445;SDS011;23307;51.136;14.942;2023-02-15T13:21:44;44.25;;;30.60;;
37445;SDS011;23307;51.136;14.942;2023-02-15T13:24:15;43.92;;;31.55;;
37445;SDS011;23307;51.136;14.942;2023-02-15T13:26:45;42.15;;;29.27;;
37445;SDS011;23307;51.136;14.942;2023-02-15T13:29:16;44.47;;;31.15;;
37445;SDS011;23307;51.136;14.942;2023-02-15T13:31:47;47.00;;;30.80;;
37445;SDS011;23307;51.136;14.942;2023-02-15T13:34:15;40.55;;;30.38;;
37445;SDS011;23307;51.136;14.942;2023-02-15T13:36:57;44.80;;;31.58;;
37445;SDS011;23307;51.136;14.942;2023-02-15T13:39:56;43.33;;;29.98;;
37445;SDS011;23307;51.136;14.942;2023-02-15T13:42:28;41.47;;;29.42;;
37445;SDS011;23307;51.136;14.942;2023-02-15T13:45:21;45.40;;;30.40;;
37445;SDS011;23307;51.136;14.942;2023-02-15T13:53:41;43.13;;;30.65;;
37445;SDS011;23307;51.136;14.942;2023-02-15T13:56:31;39.95;;;28.55;;
37445;SDS011;23307;51.136;14.942;2023-02-15T14:04:40;40.58;;;28.52;;
37445;SDS011;23307;51.136;14.942;2023-02-15T14:10:21;40.33;;;29.40;;
37445;SDS011;23307;51.136;14.942;2023-02-15T14:12:55;41.88;;;30.00;;
37445;SDS011;23307;51.136;14.942;2023-02-15T14:15:35;41.47;;;30.10;;
37445;SDS011;23307;51.136;14.942;2023-02-15T14:29:25;40.20;;;28.20;;
37445;SDS011;23307;51.136;14.942;2023-02-15T14:32:13;40.47;;;28.35;;
37445;SDS011;23307;51.136;14.942;2023-02-15T14:34:55;39.92;;;28.55;;
37445;SDS011;23307;51.136;14.942;2023-02-15T14:37:27;43.03;;;29.55;;
37445;SDS011;23307;51.136;14.942;2023-02-15T14:43:12;38.63;;;27.88;;
37445;SDS011;23307;51.136;14.942;2023-02-15T14:46:01;38.60;;;26.98;;
37445;SDS011;23307;51.136;14.942;2023-02-15T14:48:48;40.55;;;28.50;;
37445;SDS011;23307;51.136;14.942;2023-02-15T14:56:43;45.42;;;28.70;;
37445;SDS011;23307;51.136;14.942;2023-02-15T14:59:36;39.92;;;26.20;;
37445;SDS011;23307;51.136;14.942;2023-02-15T15:04:41;40.97;;;27.17;;
37445;SDS011;23307;51.136;14.942;2023-02-15T15:07:14;40.45;;;28.60;;
37445;SDS011;23307;51.136;14.942;2023-02-15T15:10:48;41.30;;;27.77;;
37445;SDS011;23307;51.136;14.942;2023-02-15T15:12:49;51.15;;;33.45;;
37445;SDS011;23307;51.136;14.942;2023-02-15T15:17:58;44.92;;;29.85;;
37445;SDS011;23307;51.136;14.942;2023-02-15T15:25:43;45.75;;;29.85;;
37445;SDS011;23307;51.136;14.942;2023-02-15T15:39:48;45.20;;;28.50;;
37445;SDS011;23307;51.136;14.942;2023-02-15T15:45:29;47.20;;;29.87;;
37445;SDS011;23307;51.136;14.942;2023-02-15T15:50:47;44.67;;;29.23;;
37445;SDS011;23307;51.136;14.942;2023-02-15T15:53:20;46.77;;;30.33;;
37445;SDS011;23307;51.136;14.942;2023-02-15T15:55:49;44.03;;;29.17;;
37445;SDS011;23307;51.136;14.942;2023-02-15T15:58:19;49.53;;;29.63;;
37445;SDS011;23307;51.136;14.942;2023-02-15T16:00:49;45.03;;;28.50;;
37445;SDS011;23307;51.136;14.942;2023-02-15T16:03:23;45.63;;;29.00;;
37445;SDS011;23307;51.136;14.942;2023-02-15T16:05:50;45.33;;;28.10;;
37445;SDS011;23307;51.136;14.942;2023-02-15T16:08:27;44.67;;;28.23;;
37445;SDS011;23307;51.136;14.942;2023-02-15T16:11:00;48.27;;;30.33;;
37445;SDS011;23307;51.136;14.942;2023-02-15T16:13:36;44.10;;;27.90;;
37445;SDS011;23307;51.136;14.942;2023-02-15T16:16:01;47.73;;;28.17;;
37445;SDS011;23307;51.136;14.942;2023-02-15T16:18:27;43.70;;;27.27;;
37445;SDS011;23307;51.136;14.942;2023-02-15T16:20:57;49.90;;;28.97;;
37445;SDS011;23307;51.136;14.942;2023-02-15T16:28:58;47.90;;;28.77;;
37445;SDS011;23307;51.136;14.942;2023-02-15T16:31:24;47.60;;;27.63;;
37445;SDS011;23307;51.136;14.942;2023-02-15T16:33:52;45.53;;;28.10;;
37445;SDS011;23307;51.136;14.942;2023-02-15T16:36:22;48.87;;;28.30;;
37445;SDS011;23307;51.136;14.942;2023-02-15T16:41:15;47.57;;;25.77;;
37445;SDS011;23307;51.136;14.942;2023-02-15T16:43:46;51.67;;;28.90;;
37445;SDS011;23307;51.136;14.942;2023-02-15T16:46:15;45.87;;;27.53;;
37445;SDS011;23307;51.136;14.942;2023-02-15T16:49:00;48.27;;;27.83;;
37445;SDS011;23307;51.136;14.942;2023-02-15T16:51:31;47.13;;;29.07;;
37445;SDS011;23307;51.136;14.942;2023-02-15T16:54:01;46.60;;;27.77;;
37445;SDS011;23307;51.136;14.942;2023-02-15T16:56:30;48.90;;;28.47;;
37445;SDS011;23307;51.136;14.942;2023-02-15T16:58:57;46.77;;;26.90;;
37445;SDS011;23307;51.136;14.942;2023-02-15T17:01:26;45.83;;;27.33;;
37445;SDS011;23307;51.136;14.942;2023-02-15T17:04:11;47.43;;;26.80;;
37445;SDS011;23307;51.136;14.942;2023-02-15T17:07:05;51.07;;;29.63;;
37445;SDS011;23307;51.136;14.942;2023-02-15T17:09:40;54.20;;;29.80;;
37445;SDS011;23307;51.136;14.942;2023-02-15T17:15:27;46.60;;;27.83;;
37445;SDS011;23307;51.136;14.942;2023-02-15T17:17:58;50.97;;;29.53;;
37445;SDS011;23307;51.136;14.942;2023-02-15T17:20:45;50.83;;;27.87;;
37445;SDS011;23307;51.136;14.942;2023-02-15T17:25:58;52.07;;;28.27;;
37445;SDS011;23307;51.136;14.942;2023-02-15T17:28:30;49.57;;;28.87;;
37445;SDS011;23307;51.136;14.942;2023-02-15T17:30:56;48.93;;;29.27;;
37445;SDS011;23307;51.136;14.942;2023-02-15T17:33:41;52.20;;;29.63;;
37445;SDS011;23307;51.136;14.942;2023-02-15T17:36:20;52.33;;;30.47;;